Time;durP1;ratioP1;P1;durP2;ratioP2;P2;SDS_P1;SDS_P2;PMS_P1;PMS_P2;Temp;Humidity;BMP_temperature;BMP_pressure;BME280_temperature;BME280_humidity;BME280_pressure;Samples;Min_cycle;Max_cycle;Signal;HPM_P1;HPM_P2
2023/06/09 00:01:37;;;;;;;4.72;2.80;;;18.50;59.50;;;;;;5077735;28;20025;-70
2023/06/09 00:04:03;;;;;;;6.57;3.00;;;18.40;60.10;;;;;;5073388;28;20037;-70
2023/06/09 00:06:30;;;;;;;5.03;2.70;;;18.40;59.60;;;;;;5075306;28;20028;-70
2023/06/09 00:08:57;;;;;;;6.03;2.80;;;18.40;59.70;;;;;;5089946;28;20024;-71
2023/06/09 00:11:22;;;;;;;7.63;2.70;;;18.30;59.80;;;;;;5087239;28;20023;-70
2023/06/09 00:13:48;;;;;;;6.32;3.00;;;18.30;59.90;;;;;;5078799;28;20024;-70
2023/06/09 00:16:15;;;;;;;8.93;3.30;;;18.30;60.10;;;;;;5078866;28;20028;-70
2023/06/09 00:18:41;;;;;;;7.05;3.13;;;18.20;60.20;;;;;;5085089;28;20016;-70
2023/06/09 00:21:07;;;;;;;8.48;3.00;;;18.10;60.60;;;;;;5080522;28;20023;-70
2023/06/09 00:23:33;;;;;;;6.68;2.55;;;18.10;60.60;;;;;;5077502;28;20020;-69
2023/06/09 00:25:59;;;;;;;5.68;2.92;;;18.10;60.70;;;;;;5075751;28;20066;-69
2023/06/09 00:28:25;;;;;;;5.85;2.83;;;18.10;60.80;;;;;;5085317;28;20493;-69
2023/06/09 00:30:50;;;;;;;6.35;3.10;;;18.10;60.80;;;;;;5092095;28;20662;-69
2023/06/09 00:33:17;;;;;;;6.63;2.88;;;18.10;61.00;;;;;;5074063;28;20016;-69
2023/06/09 00:35:42;;;;;;;6.57;2.88;;;18.00;60.90;;;;;;5082583;28;20052;-69
2023/06/09 00:38:08;;;;;;;6.20;2.83;;;18.00;61.00;;;;;;5073823;28;20055;-69
2023/06/09 00:40:34;;;;;;;6.57;2.80;;;18.00;61.00;;;;;;5087747;28;20480;-71
2023/06/09 00:43:00;;;;;;;7.22;3.47;;;18.00;61.00;;;;;;5072622;28;20486;-70
2023/06/09 00:45:25;;;;;;;6.40;3.15;;;18.00;61.10;;;;;;5088010;28;20024;-70
2023/06/09 00:47:51;;;;;;;6.22;3.15;;;18.00;61.20;;;;;;5073763;28;20158;-70
2023/06/09 00:50:20;;;;;;;9.18;3.42;;;17.90;61.30;;;;;;5074166;28;20372;-71
2023/06/09 00:52:46;;;;;;;8.90;2.70;;;17.90;61.60;;;;;;5075762;28;20016;-71
2023/06/09 00:55:12;;;;;;;8.45;2.92;;;17.90;61.50;;;;;;5089015;28;20023;-69
2023/06/09 00:57:39;;;;;;;8.75;3.53;;;17.90;61.50;;;;;;5096763;28;20039;-69
2023/06/09 01:00:06;;;;;;;7.82;3.17;;;17.90;61.80;;;;;;5094324;28;20532;-69
2023/06/09 01:02:32;;;;;;;5.75;2.83;;;17.90;61.80;;;;;;5088216;28;20019;-69
2023/06/09 01:04:58;;;;;;;4.90;2.55;;;17.90;61.80;;;;;;5095951;28;20039;-69
2023/06/09 01:07:51;;;;;;;6.80;2.80;;;17.80;61.80;;;;;;5082461;28;20542;-69
2023/06/09 01:10:34;;;;;;;6.53;2.90;;;17.80;61.80;;;;;;5087491;28;20047;-70
2023/06/09 01:13:16;;;;;;;5.50;2.90;;;17.80;62.00;;;;;;5097853;27;20032;-69
2023/06/09 01:15:50;;;;;;;6.53;3.10;;;17.70;62.20;;;;;;5078202;28;20021;-69
2023/06/09 01:18:17;;;;;;;5.63;2.80;;;17.70;62.40;;;;;;5078339;28;20052;-69
2023/06/09 01:20:56;;;;;;;6.70;2.80;;;17.60;62.60;;;;;;5076052;28;20035;-69
2023/06/09 01:23:51;;;;;;;6.70;3.33;;;17.60;62.70;;;;;;5082222;28;20082;-69
2023/06/09 01:26:17;;;;;;;7.30;3.25;;;17.50;63.50;;;;;;5085782;28;20501;-69
2023/06/09 01:28:44;;;;;;;9.30;3.30;;;17.40;63.50;;;;;;5088160;28;20107;-69
2023/06/09 01:31:11;;;;;;;7.30;2.95;;;17.30;63.60;;;;;;5074955;28;20070;-69
2023/06/09 01:33:38;;;;;;;5.55;2.80;;;17.30;63.60;;;;;;5070319;28;20061;-70
2023/06/09 01:36:05;;;;;;;8.25;3.35;;;17.30;63.80;;;;;;5072451;28;20025;-69
2023/06/09 01:38:31;;;;;;;7.30;3.53;;;17.20;64.20;;;;;;5081851;28;20027;-69
2023/06/09 01:40:56;;;;;;;7.97;3.38;;;17.20;64.30;;;;;;5088323;28;20032;-69
2023/06/09 01:43:22;;;;;;;7.90;3.25;;;17.20;64.40;;;;;;5077611;28;20114;-69
2023/06/09 01:45:48;;;;;;;7.97;3.40;;;17.20;64.50;;;;;;5080304;28;20040;-71
2023/06/09 01:48:40;;;;;;;7.13;2.75;;;17.10;64.50;;;;;;5082969;28;20028;-71
2023/06/09 01:51:15;;;;;;;6.53;3.13;;;17.10;64.60;;;;;;5082696;28;20032;-71
2023/06/09 01:53:49;;;;;;;6.80;2.83;;;17.00;65.30;;;;;;5070032;28;20242;-71
2023/06/09 01:56:25;;;;;;;7.30;2.90;;;16.90;65.10;;;;;;5089053;28;20059;-71
2023/06/09 01:59:00;;;;;;;7.47;3.20;;;16.90;65.10;;;;;;5090885;28;20032;-71
2023/06/09 02:01:26;;;;;;;6.70;3.10;;;16.90;65.20;;;;;;5086967;28;20024;-72
2023/06/09 02:03:53;;;;;;;7.85;3.15;;;16.80;65.30;;;;;;5069458;28;20632;-71
2023/06/09 02:06:20;;;;;;;7.00;2.95;;;16.80;65.60;;;;;;5070917;28;20553;-68
2023/06/09 02:08:46;;;;;;;8.35;2.85;;;16.70;65.70;;;;;;5079532;28;20027;-70
2023/06/09 02:11:11;;;;;;;8.60;3.78;;;16.80;65.70;;;;;;5099450;28;20115;-70
2023/06/09 02:13:37;;;;;;;7.72;3.22;;;16.70;66.20;;;;;;5091675;28;20108;-71
2023/06/09 02:16:03;;;;;;;10.70;3.42;;;16.60;66.20;;;;;;5070739;28;20034;-70
2023/06/09 02:18:29;;;;;;;7.85;3.13;;;16.60;66.50;;;;;;5070080;28;20153;-70
2023/06/09 02:20:55;;;;;;;6.45;3.13;;;16.50;66.50;;;;;;5069066;28;20433;-69
2023/06/09 02:23:22;;;;;;;8.15;3.60;;;16.50;66.50;;;;;;5072234;28;20107;-70
2023/06/09 02:25:48;;;;;;;6.15;3.38;;;16.50;66.60;;;;;;5071396;28;20024;-71
2023/06/09 02:28:16;;;;;;;8.18;2.97;;;16.50;66.50;;;;;;5082794;28;20036;-70
2023/06/09 02:30:43;;;;;;;9.68;3.58;;;16.50;66.40;;;;;;5078290;28;20027;-70
2023/06/09 02:33:08;;;;;;;7.18;3.08;;;16.40;66.90;;;;;;5087905;28;20032;-68
2023/06/09 02:35:34;;;;;;;5.47;2.90;;;16.40;66.80;;;;;;5083005;28;20116;-68
2023/06/09 02:38:07;;;;;;;8.70;3.05;;;16.40;66.80;;;;;;5088762;28;20032;-68
2023/06/09 02:40:33;;;;;;;10.82;3.70;;;16.30;66.90;;;;;;5085047;28;20024;-68
2023/06/09 02:42:59;;;;;;;7.65;3.33;;;16.20;67.50;;;;;;5088899;28;20032;-68
2023/06/09 02:45:25;;;;;;;7.13;3.17;;;16.20;67.30;;;;;;5097245;28;20028;-69
2023/06/09 02:47:51;;;;;;;7.80;3.65;;;16.20;67.30;;;;;;5095586;28;20398;-68
2023/06/09 02:50:17;;;;;;;9.88;3.78;;;16.20;67.20;;;;;;5098657;28;20490;-69
2023/06/09 02:52:42;;;;;;;6.72;3.50;;;16.10;67.40;;;;;;5078912;28;20161;-69
2023/06/09 02:55:08;;;;;;;11.05;3.70;;;16.10;67.40;;;;;;5070721;28;20083;-68
2023/06/09 02:57:34;;;;;;;7.18;3.40;;;16.10;67.70;;;;;;5082391;28;20021;-68
2023/06/09 03:00:00;;;;;;;5.90;2.83;;;16.10;67.80;;;;;;5081545;28;20066;-69
2023/06/09 03:02:28;;;;;;;8.00;3.10;;;16.10;67.80;;;;;;5081620;28;20028;-70
2023/06/09 03:04:55;;;;;;;8.07;3.60;;;16.00;68.10;;;;;;5070968;28;20107;-70
2023/06/09 03:07:20;;;;;;;6.75;3.28;;;16.00;68.00;;;;;;5087911;28;20035;-70
2023/06/09 03:09:46;;;;;;;9.45;3.40;;;16.00;68.00;;;;;;5091020;28;20025;-71
2023/06/09 03:12:11;;;;;;;7.68;3.67;;;16.00;67.90;;;;;;5085558;28;20020;-72
2023/06/09 03:14:37;;;;;;;7.15;3.47;;;15.90;67.80;;;;;;5097942;28;20136;-70
2023/06/09 03:17:04;;;;;;;9.30;3.63;;;15.90;67.80;;;;;;5074313;28;20040;-71
2023/06/09 03:19:30;;;;;;;8.02;3.20;;;15.90;68.10;;;;;;5089454;28;20024;-71
2023/06/09 03:21:56;;;;;;;9.98;4.10;;;15.90;68.00;;;;;;5081613;28;20077;-71
2023/06/09 03:24:22;;;;;;;9.48;3.88;;;15.80;68.50;;;;;;5090575;28;20028;-71
2023/06/09 03:26:47;;;;;;;12.07;4.28;;;15.80;69.20;;;;;;5089139;28;20487;-72
2023/06/09 03:29:13;;;;;;;7.38;3.83;;;15.70;69.00;;;;;;5076926;28;20445;-71
2023/06/09 03:31:39;;;;;;;9.07;3.80;;;15.80;68.90;;;;;;5085635;28;20028;-71
2023/06/09 03:34:05;;;;;;;7.78;3.70;;;15.70;69.10;;;;;;5083181;28;20530;-70
2023/06/09 03:36:33;;;;;;;8.27;3.92;;;15.70;69.20;;;;;;5077411;28;20087;-69
2023/06/09 03:38:58;;;;;;;9.75;3.97;;;15.70;69.80;;;;;;5072374;28;20525;-69
2023/06/09 03:41:27;;;;;;;10.82;3.80;;;15.60;69.80;;;;;;5081993;28;20036;-70
2023/06/09 03:43:52;;;;;;;6.57;3.40;;;15.60;69.70;;;;;;5075527;28;20482;-69
2023/06/09 03:46:18;;;;;;;8.20;3.75;;;15.60;69.50;;;;;;5091808;28;20081;-69
2023/06/09 03:48:43;;;;;;;8.23;3.63;;;15.60;69.80;;;;;;5075639;28;20109;-70
2023/06/09 03:51:09;;;;;;;9.18;4.20;;;15.60;69.80;;;;;;5090053;28;20478;-69
2023/06/09 03:53:35;;;;;;;7.25;3.50;;;15.60;69.80;;;;;;5075208;28;20032;-70
2023/06/09 03:56:00;;;;;;;7.82;3.80;;;15.60;69.80;;;;;;5089217;28;20085;-69
2023/06/09 03:58:26;;;;;;;10.07;3.95;;;15.70;70.10;;;;;;5082481;28;20036;-70
2023/06/09 04:00:52;;;;;;;9.13;3.88;;;15.70;70.20;;;;;;5077943;28;20386;-70
2023/06/09 04:03:20;;;;;;;10.05;4.10;;;15.60;70.50;;;;;;5087916;28;20028;-68
2023/06/09 04:05:46;;;;;;;10.38;4.68;;;15.60;70.40;;;;;;5092377;28;20024;-69
2023/06/09 04:08:12;;;;;;;10.57;3.90;;;15.60;70.40;;;;;;5082788;28;20044;-69
2023/06/09 04:10:38;;;;;;;9.38;4.10;;;15.60;70.70;;;;;;5086968;28;20063;-70
2023/06/09 04:13:04;;;;;;;10.27;4.28;;;15.60;70.70;;;;;;5073446;28;20020;-71
2023/06/09 04:15:29;;;;;;;9.80;4.10;;;15.60;71.00;;;;;;5077701;28;20020;-70
2023/06/09 04:17:55;;;;;;;9.20;4.13;;;15.60;71.10;;;;;;5077078;28;20020;-69
2023/06/09 04:20:22;;;;;;;8.60;4.07;;;15.70;70.90;;;;;;5081496;28;20577;-70
2023/06/09 04:22:51;;;;;;;8.73;4.22;;;15.70;70.80;;;;;;5077336;28;20020;-70
2023/06/09 04:25:19;;;;;;;11.13;4.03;;;15.70;70.70;;;;;;5082671;28;20029;-70
2023/06/09 04:27:45;;;;;;;8.48;4.30;;;15.70;71.00;;;;;;5080012;28;20056;-70
2023/06/09 04:30:11;;;;;;;7.43;3.90;;;15.70;71.00;;;;;;5071537;28;20494;-70
2023/06/09 04:32:37;;;;;;;8.68;3.83;;;15.70;70.80;;;;;;5081826;28;20029;-69
2023/06/09 04:35:03;;;;;;;11.13;4.43;;;15.80;71.00;;;;;;5072849;28;20100;-69
2023/06/09 04:37:30;;;;;;;8.45;4.22;;;15.80;71.00;;;;;;5078941;28;20016;-69
2023/06/09 04:39:56;;;;;;;9.13;4.18;;;15.80;71.80;;;;;;5088506;28;20378;-69
2023/06/09 04:42:22;;;;;;;8.80;4.18;;;15.90;71.10;;;;;;5092179;28;20032;-70
2023/06/09 04:44:48;;;;;;;10.02;4.90;;;15.90;71.10;;;;;;5085042;28;20017;-70
2023/06/09 04:47:17;;;;;;;7.53;3.95;;;15.90;71.00;;;;;;5074455;28;20028;-70
2023/06/09 04:49:46;;;;;;;7.10;3.92;;;16.00;71.00;;;;;;5071455;28;20042;-70
2023/06/09 04:52:13;;;;;;;8.27;3.92;;;16.10;70.90;;;;;;5074535;28;20410;-70
2023/06/09 04:54:38;;;;;;;9.60;4.10;;;16.50;70.10;;;;;;5089845;28;20077;-72
2023/06/09 04:57:05;;;;;;;7.70;3.75;;;16.90;69.10;;;;;;5083610;28;20457;-71
2023/06/09 04:59:31;;;;;;;9.43;3.90;;;17.40;67.90;;;;;;5092394;28;20058;-70
2023/06/09 05:01:57;;;;;;;9.45;4.53;;;17.80;66.80;;;;;;5081296;28;20090;-70
2023/06/09 05:04:23;;;;;;;10.00;4.50;;;18.10;66.00;;;;;;5107022;28;20113;-70
2023/06/09 05:06:49;;;;;;;9.00;3.70;;;18.40;65.30;;;;;;5101283;28;20023;-70
2023/06/09 05:09:14;;;;;;;9.27;4.28;;;18.50;64.80;;;;;;5092095;28;20032;-71
2023/06/09 05:11:40;;;;;;;9.60;4.40;;;18.60;64.70;;;;;;5085678;28;20103;-70
2023/06/09 05:14:06;;;;;;;13.52;4.68;;;18.90;64.20;;;;;;5092168;28;20360;-70
2023/06/09 05:16:34;;;;;;;9.20;4.30;;;19.00;63.60;;;;;;5104889;28;20035;-71
2023/06/09 05:19:00;;;;;;;7.10;4.10;;;19.20;63.50;;;;;;5077478;28;20103;-70
2023/06/09 05:21:26;;;;;;;9.70;4.30;;;19.50;62.80;;;;;;5081134;28;20159;-70
2023/06/09 05:23:52;;;;;;;8.05;4.00;;;19.70;62.30;;;;;;5096106;28;20068;-69
2023/06/09 05:26:18;;;;;;;7.32;4.22;;;19.90;61.90;;;;;;5093308;28;20081;-70
2023/06/09 05:28:44;;;;;;;8.90;4.72;;;20.20;61.30;;;;;;5092722;28;20027;-70
2023/06/09 05:31:11;;;;;;;9.32;4.15;;;20.10;61.20;;;;;;5091247;28;20024;-71
2023/06/09 05:33:37;;;;;;;7.88;4.07;;;20.30;61.20;;;;;;5089765;28;20021;-71
2023/06/09 05:36:02;;;;;;;7.47;3.78;;;20.50;60.90;;;;;;5089854;28;20024;-70
2023/06/09 05:38:28;;;;;;;7.63;3.65;;;20.50;60.90;;;;;;5084150;28;20422;-70
2023/06/09 05:40:53;;;;;;;9.13;4.25;;;20.70;60.70;;;;;;5081657;28;20426;-71
2023/06/09 05:43:19;;;;;;;8.80;4.25;;;20.50;61.00;;;;;;5082614;28;20100;-70
2023/06/09 05:45:44;;;;;;;9.85;4.05;;;20.70;61.20;;;;;;5095377;28;20019;-71
2023/06/09 05:48:10;;;;;;;7.88;3.80;;;20.70;61.10;;;;;;5089357;28;20024;-70
2023/06/09 05:50:37;;;;;;;6.97;3.33;;;21.00;60.90;;;;;;5087121;28;20051;-69
2023/06/09 05:53:03;;;;;;;7.30;3.75;;;21.10;60.80;;;;;;5088685;28;20520;-73
2023/06/09 05:55:29;;;;;;;8.25;3.95;;;21.20;60.60;;;;;;5088478;28;20043;-70
2023/06/09 05:57:54;;;;;;;7.57;4.43;;;21.10;60.80;;;;;;5095203;28;20029;-70
2023/06/09 06:00:20;;;;;;;9.50;3.85;;;21.00;61.00;;;;;;5079313;28;20212;-70
2023/06/09 06:02:46;;;;;;;10.07;4.93;;;20.90;61.30;;;;;;5093316;28;20039;-71
2023/06/09 06:05:14;;;;;;;8.20;4.57;;;20.80;61.50;;;;;;5084813;28;20034;-72
2023/06/09 06:07:40;;;;;;;7.32;4.70;;;20.60;62.00;;;;;;5094113;28;20032;-70
2023/06/09 06:10:07;;;;;;;9.60;5.03;;;20.50;62.10;;;;;;5078617;28;20051;-70
2023/06/09 06:12:33;;;;;;;10.07;5.32;;;20.50;62.20;;;;;;5096455;28;20016;-71
2023/06/09 06:14:58;;;;;;;8.23;4.93;;;20.50;62.40;;;;;;5077672;28;20643;-70
2023/06/09 06:17:24;;;;;;;9.40;4.65;;;20.40;62.70;;;;;;5088996;28;20042;-71
2023/06/09 06:19:52;;;;;;;8.70;5.10;;;20.40;62.80;;;;;;5088712;28;20039;-70
2023/06/09 06:22:18;;;;;;;9.35;5.10;;;20.50;62.80;;;;;;5090475;28;20032;-72
2023/06/09 06:24:44;;;;;;;10.05;5.40;;;20.40;62.60;;;;;;5087569;28;20560;-70
2023/06/09 06:27:11;;;;;;;8.93;5.25;;;20.50;62.50;;;;;;5085549;28;20032;-70
2023/06/09 06:29:38;;;;;;;8.35;4.60;;;20.40;62.60;;;;;;5074619;28;20128;-69
2023/06/09 06:32:05;;;;;;;7.60;4.25;;;20.60;62.70;;;;;;5089477;28;20051;-69
2023/06/09 06:34:31;;;;;;;8.23;4.60;;;20.90;62.30;;;;;;5082206;28;20776;-69
2023/06/09 06:36:57;;;;;;;8.95;5.20;;;21.10;61.60;;;;;;5083823;28;20020;-70
2023/06/09 06:39:22;;;;;;;9.85;5.57;;;21.00;61.30;;;;;;5079965;28;20094;-70
2023/06/09 06:41:48;;;;;;;10.93;5.20;;;20.90;61.20;;;;;;5096621;28;20032;-70
2023/06/09 06:44:14;;;;;;;10.82;6.00;;;21.00;61.30;;;;;;5082988;28;20035;-69
2023/06/09 06:46:39;;;;;;;8.48;5.25;;;20.90;61.30;;;;;;5094448;28;20514;-71
2023/06/09 06:49:05;;;;;;;7.32;5.07;;;21.10;61.40;;;;;;5085560;28;20028;-70
2023/06/09 06:51:30;;;;;;;11.77;5.60;;;21.20;61.10;;;;;;5088141;28;20028;-71
2023/06/09 06:53:56;;;;;;;9.30;4.90;;;21.20;60.80;;;;;;5080630;28;20067;-70
2023/06/09 06:56:22;;;;;;;9.00;4.53;;;21.30;60.80;;;;;;5090217;28;20160;-70
2023/06/09 06:58:48;;;;;;;9.57;4.63;;;21.60;60.60;;;;;;5089221;28;20032;-71
2023/06/09 07:01:21;;;;;;;11.20;5.32;;;21.70;60.00;;;;;;5087507;28;20077;-71
2023/06/09 07:03:49;;;;;;;7.93;4.72;;;21.70;59.60;;;;;;5085255;28;20032;-71
2023/06/09 07:06:17;;;;;;;9.55;5.10;;;21.70;59.90;;;;;;5086643;28;20028;-70
2023/06/09 07:08:43;;;;;;;8.68;4.20;;;21.70;59.90;;;;;;5085561;28;20089;-70
2023/06/09 07:11:09;;;;;;;9.25;4.47;;;21.90;59.90;;;;;;5086454;28;20029;-71
2023/06/09 07:13:34;;;;;;;9.30;5.32;;;22.10;59.60;;;;;;5083394;28;20493;-70
2023/06/09 07:16:01;;;;;;;7.32;4.45;;;22.40;59.00;;;;;;5103378;28;20020;-70
2023/06/09 07:18:29;;;;;;;7.75;4.43;;;22.40;58.70;;;;;;5095076;28;20022;-70
2023/06/09 07:20:55;;;;;;;7.68;4.80;;;22.60;58.70;;;;;;5090959;28;20364;-70
2023/06/09 07:23:21;;;;;;;8.52;4.72;;;22.70;58.10;;;;;;5093813;28;20043;-69
2023/06/09 07:25:46;;;;;;;6.22;4.25;;;22.80;58.10;;;;;;5078880;28;20486;-70
2023/06/09 07:28:12;;;;;;;8.27;5.05;;;23.00;57.90;;;;;;5075022;28;20149;-71
2023/06/09 07:30:40;;;;;;;8.05;4.50;;;23.10;57.00;;;;;;5081347;28;20024;-71
2023/06/09 07:33:06;;;;;;;8.52;5.32;;;23.10;57.30;;;;;;5088419;28;20052;-70
2023/06/09 07:35:32;;;;;;;6.72;4.30;;;23.20;57.00;;;;;;5083099;28;20553;-70
2023/06/09 07:37:58;;;;;;;9.63;4.47;;;23.10;56.90;;;;;;5082205;28;20028;-70
2023/06/09 07:40:23;;;;;;;6.50;4.20;;;23.20;57.20;;;;;;5104731;28;20020;-69
2023/06/09 07:42:49;;;;;;;6.63;4.30;;;23.50;57.10;;;;;;5080763;28;20036;-70
2023/06/09 07:45:15;;;;;;;6.85;4.50;;;23.70;56.60;;;;;;5075084;28;20433;-69
2023/06/09 07:47:40;;;;;;;7.65;4.30;;;23.90;56.20;;;;;;5091337;28;20058;-69
2023/06/09 07:50:06;;;;;;;9.23;4.65;;;24.00;55.70;;;;;;5092674;28;20499;-69
2023/06/09 07:52:32;;;;;;;7.70;4.15;;;24.20;55.00;;;;;;5108011;28;20507;-69
2023/06/09 07:54:58;;;;;;;7.28;4.47;;;24.30;55.00;;;;;;5076916;28;20100;-69
2023/06/09 07:57:23;;;;;;;7.35;4.55;;;24.40;54.50;;;;;;5078855;28;20095;-69
2023/06/09 07:59:49;;;;;;;5.78;4.00;;;24.30;54.20;;;;;;5087620;28;20117;-69
2023/06/09 08:02:16;;;;;;;7.13;4.00;;;24.30;54.60;;;;;;5083393;28;20742;-70
2023/06/09 08:04:42;;;;;;;5.63;3.92;;;24.50;54.20;;;;;;5086203;28;20398;-69
2023/06/09 08:07:09;;;;;;;7.65;4.32;;;24.60;54.30;;;;;;5083543;28;20028;-70
2023/06/09 08:09:35;;;;;;;6.25;4.50;;;24.70;54.00;;;;;;5085302;28;20119;-69
2023/06/09 08:12:01;;;;;;;7.82;4.60;;;24.60;53.40;;;;;;5090016;28;20016;-70
2023/06/09 08:14:27;;;;;;;7.95;4.30;;;24.70;53.70;;;;;;5092769;28;20097;-69
2023/06/09 08:16:52;;;;;;;8.25;4.63;;;24.80;54.00;;;;;;5084259;28;20035;-69
2023/06/09 08:19:18;;;;;;;7.50;4.60;;;25.00;53.80;;;;;;5091356;28;20495;-69
2023/06/09 08:21:44;;;;;;;7.00;4.28;;;25.20;53.50;;;;;;5085133;28;20028;-69
2023/06/09 08:24:10;;;;;;;5.93;4.10;;;25.40;53.50;;;;;;5093256;28;20040;-71
2023/06/09 08:26:36;;;;;;;7.65;4.75;;;25.40;53.10;;;;;;5087672;28;20055;-70
2023/06/09 08:29:06;;;;;;;8.50;5.28;;;25.50;53.00;;;;;;5090561;28;20064;-70
2023/06/09 08:31:32;;;;;;;7.53;5.00;;;25.50;52.50;;;;;;5087468;28;20475;-69
2023/06/09 08:33:58;;;;;;;7.40;4.93;;;25.40;52.60;;;;;;5083016;27;20072;-69
2023/06/09 08:36:24;;;;;;;8.55;4.82;;;25.50;52.80;;;;;;5084706;28;20065;-70
2023/06/09 08:38:50;;;;;;;6.45;4.18;;;25.60;52.70;;;;;;5083054;28;20153;-70
2023/06/09 08:41:17;;;;;;;8.23;5.10;;;25.70;52.70;;;;;;5091358;28;20661;-71
2023/06/09 08:43:42;;;;;;;8.02;5.03;;;25.90;52.40;;;;;;5083700;28;20115;-71
2023/06/09 08:46:11;;;;;;;11.65;6.40;;;25.90;51.90;;;;;;5082954;28;20099;-71
2023/06/09 08:48:50;;;;;;;9.32;5.53;;;25.80;51.60;;;;;;5087673;28;20402;-71
2023/06/09 08:51:16;;;;;;;7.60;4.70;;;25.80;51.60;;;;;;5092784;28;20063;-70
2023/06/09 08:53:43;;;;;;;6.70;4.65;;;25.80;52.00;;;;;;5092292;28;20660;-69
2023/06/09 08:56:09;;;;;;;6.50;4.60;;;25.90;52.10;;;;;;5085124;28;20028;-69
2023/06/09 08:58:36;;;;;;;9.15;5.95;;;26.00;52.00;;;;;;5087457;28;20025;-69
2023/06/09 09:01:03;;;;;;;8.50;5.15;;;26.00;52.00;;;;;;5089468;28;20051;-69
2023/06/09 09:03:29;;;;;;;8.45;5.03;;;25.80;51.60;;;;;;5093390;28;20169;-69
2023/06/09 09:05:55;;;;;;;6.20;4.60;;;25.90;51.90;;;;;;5088425;28;20112;-69
2023/06/09 09:08:20;;;;;;;7.75;4.60;;;26.00;52.10;;;;;;5090455;28;20035;-69
2023/06/09 09:10:46;;;;;;;8.88;6.40;;;26.00;52.00;;;;;;5090289;28;20020;-69
2023/06/09 09:13:12;;;;;;;10.70;6.22;;;26.00;51.20;;;;;;5083809;28;20024;-69
2023/06/09 09:15:47;;;;;;;7.35;4.50;;;25.90;51.50;;;;;;5084942;28;20363;-69
2023/06/09 09:18:13;;;;;;;6.95;5.13;;;26.10;51.80;;;;;;5092584;28;20023;-69
2023/06/09 09:20:41;;;;;;;9.25;5.95;;;26.20;51.50;;;;;;5089895;28;20028;-69
2023/06/09 09:23:07;;;;;;;8.13;5.50;;;26.00;50.90;;;;;;5086451;28;20260;-69
2023/06/09 09:25:33;;;;;;;9.40;5.07;;;26.00;51.20;;;;;;5090673;28;20052;-69
2023/06/09 09:28:08;;;;;;;8.65;6.15;;;26.00;51.80;;;;;;5085276;28;20036;-68
2023/06/09 09:30:45;;;;;;;9.80;6.25;;;26.00;51.40;;;;;;5087012;28;20497;-69
2023/06/09 09:33:12;;;;;;;7.93;5.90;;;25.90;51.60;;;;;;5086249;28;20024;-69
2023/06/09 09:35:39;;;;;;;11.98;5.80;;;25.90;52.00;;;;;;5089874;28;20038;-69
2023/06/09 09:38:11;;;;;;;10.57;5.63;;;25.90;51.90;;;;;;5086686;28;20030;-69
2023/06/09 09:40:40;;;;;;;;;;;26.00;51.60;;;;;;5085140;28;20024;-69
2023/06/09 09:43:08;;;;;;;9.35;5.47;;;26.20;51.60;;;;;;5086128;28;20621;-70
2023/06/09 09:45:37;;;;;;;8.07;4.53;;;26.40;51.40;;;;;;5087749;28;20027;-70
2023/06/09 09:48:11;;;;;;;7.75;4.60;;;26.50;51.40;;;;;;5085403;28;20032;-69
2023/06/09 09:50:41;;;;;;;7.65;4.82;;;26.90;51.20;;;;;;5089489;28;20058;-69
2023/06/09 09:53:08;;;;;;;9.25;4.50;;;27.10;50.40;;;;;;5087819;28;20024;-69
2023/06/09 09:55:36;;;;;;;9.90;6.13;;;27.10;50.30;;;;;;5092569;28;20026;-70
2023/06/09 09:58:07;;;;;;;10.13;5.15;;;27.10;48.90;;;;;;5088158;28;20039;-70
2023/06/09 10:00:36;;;;;;;8.82;5.30;;;27.00;49.50;;;;;;5093955;28;20070;-70
2023/06/09 10:03:11;;;;;;;7.35;5.32;;;27.00;49.30;;;;;;5085988;28;20032;-70
2023/06/09 10:05:39;;;;;;;6.75;4.30;;;27.10;49.10;;;;;;5089516;28;20023;-70
2023/06/09 10:08:06;;;;;;;7.45;4.93;;;27.30;49.10;;;;;;5089599;28;20048;-70
2023/06/09 10:10:33;;;;;;;7.18;4.47;;;27.20;48.60;;;;;;5085963;28;20020;-69
2023/06/09 10:13:00;;;;;;;8.75;5.05;;;27.30;48.20;;;;;;5097909;28;20073;-69
2023/06/09 10:15:26;;;;;;;8.18;4.85;;;27.30;48.00;;;;;;5091599;28;20447;-70
2023/06/09 10:17:54;;;;;;;7.13;4.80;;;27.40;47.80;;;;;;5097707;27;20079;-69
2023/06/09 10:20:20;;;;;;;7.45;4.40;;;27.30;47.90;;;;;;5090280;28;20032;-69
2023/06/09 10:22:47;;;;;;;5.63;4.03;;;27.20;47.50;;;;;;5089770;28;20482;-69
2023/06/09 10:25:13;;;;;;;5.47;4.40;;;27.20;46.30;;;;;;5087448;28;20096;-69
2023/06/09 10:27:38;;;;;;;7.00;4.03;;;27.30;46.60;;;;;;5090720;28;20032;-69
2023/06/09 10:30:05;;;;;;;5.72;4.15;;;27.50;47.10;;;;;;5087854;28;20031;-69
2023/06/09 10:32:35;;;;;;;6.38;4.20;;;27.70;47.40;;;;;;5094959;28;20021;-68
2023/06/09 10:35:02;;;;;;;6.32;4.47;;;27.80;47.00;;;;;;5093140;28;20012;-68
2023/06/09 10:37:33;;;;;;;7.63;4.43;;;27.80;45.90;;;;;;5087172;28;20023;-68
2023/06/09 10:40:17;;;;;;;4.97;4.00;;;27.90;46.10;;;;;;5090452;28;20514;-69
2023/06/09 10:42:56;;;;;;;7.13;4.55;;;28.10;46.30;;;;;;5101706;28;20119;-69
2023/06/09 10:45:22;;;;;;;5.57;4.22;;;28.30;45.50;;;;;;5085985;28;20099;-69
2023/06/09 10:47:49;;;;;;;5.07;4.10;;;28.30;44.40;;;;;;5086832;28;20016;-69
2023/06/09 10:50:41;;;;;;;5.75;4.20;;;28.30;44.40;;;;;;5095547;28;20023;-69
2023/06/09 10:53:15;;;;;;;4.55;3.47;;;28.40;44.00;;;;;;5085382;28;20767;-70
2023/06/09 10:55:41;;;;;;;5.57;3.70;;;28.60;44.10;;;;;;5093697;28;20100;-69
2023/06/09 10:58:36;;;;;;;6.05;4.45;;;28.60;43.50;;;;;;5093426;28;20099;-69
2023/06/09 11:01:08;;;;;;;6.40;5.03;;;28.60;43.50;;;;;;5085214;28;20387;-69
2023/06/09 11:03:34;;;;;;;6.80;4.40;;;28.40;43.70;;;;;;5094438;28;20095;-69
2023/06/09 11:06:00;;;;;;;6.82;4.50;;;28.30;44.20;;;;;;5086121;28;20111;-69
2023/06/09 11:08:26;;;;;;;5.28;3.80;;;28.30;44.20;;;;;;5085909;28;20404;-68
2023/06/09 11:10:52;;;;;;;6.30;4.43;;;28.50;44.40;;;;;;5088765;28;20099;-68
2023/06/09 11:13:40;;;;;;;6.65;4.50;;;28.60;44.20;;;;;;5089405;28;20035;-69
2023/06/09 11:16:08;;;;;;;5.88;4.40;;;28.70;44.40;;;;;;5086854;28;20027;-69
2023/06/09 11:18:33;;;;;;;6.88;4.85;;;28.70;44.00;;;;;;5084564;28;20027;-69
2023/06/09 11:21:19;;;;;;;5.22;4.10;;;28.70;43.60;;;;;;5084657;28;20027;-69
2023/06/09 11:23:55;;;;;;;6.20;4.32;;;28.60;43.70;;;;;;5078858;28;20096;-69
2023/06/09 11:26:22;;;;;;;7.32;4.90;;;28.70;43.50;;;;;;5090690;28;20035;-69
2023/06/09 11:28:48;;;;;;;4.72;4.18;;;28.70;43.50;;;;;;5091024;28;20036;-69
2023/06/09 11:31:15;;;;;;;4.85;4.28;;;28.60;43.60;;;;;;5087201;28;20038;-69
2023/06/09 11:33:48;;;;;;;7.07;4.50;;;28.70;43.60;;;;;;5089527;28;20023;-69
2023/06/09 11:36:21;;;;;;;6.63;4.18;;;28.80;43.70;;;;;;5086929;28;20073;-70
2023/06/09 11:38:47;;;;;;;6.57;4.40;;;29.00;43.40;;;;;;5084714;28;20311;-70
2023/06/09 11:41:14;;;;;;;6.30;3.95;;;29.20;42.80;;;;;;5070648;28;20056;-69
2023/06/09 11:43:54;;;;;;;6.50;4.03;;;29.40;42.90;;;;;;5080630;28;20024;-69
2023/06/09 11:46:20;;;;;;;6.90;4.10;;;29.50;42.20;;;;;;5095169;28;20274;-70
2023/06/09 11:49:03;;;;;;;6.32;4.40;;;29.50;41.80;;;;;;5071731;28;20505;-70
2023/06/09 11:51:29;;;;;;;5.80;3.75;;;29.40;42.10;;;;;;5084556;28;20028;-70
2023/06/09 11:53:54;;;;;;;4.97;4.05;;;29.50;41.90;;;;;;5071833;28;20494;-70
2023/06/09 11:56:21;;;;;;;5.65;4.03;;;29.40;41.00;;;;;;5071448;28;20078;-70
2023/06/09 11:58:47;;;;;;;6.15;4.40;;;29.40;41.30;;;;;;5092845;28;20015;-70
2023/06/09 12:01:12;;;;;;;6.47;4.50;;;29.60;41.20;;;;;;5100445;28;20098;-70
2023/06/09 12:03:38;;;;;;;5.22;4.38;;;29.70;41.10;;;;;;5075342;28;20470;-70
2023/06/09 12:06:04;;;;;;;6.68;4.28;;;29.70;41.00;;;;;;5086772;28;20024;-70
2023/06/09 12:08:29;;;;;;;4.18;3.60;;;29.60;41.30;;;;;;5084499;28;20475;-69
2023/06/09 12:10:55;;;;;;;6.18;4.70;;;30.00;41.80;;;;;;5092727;28;20024;-71
2023/06/09 12:13:20;;;;;;;7.85;4.00;;;30.00;40.40;;;;;;5081454;28;20016;-68
2023/06/09 12:15:52;;;;;;;5.75;3.92;;;30.10;40.50;;;;;;5082515;28;20016;-68
2023/06/09 12:18:18;;;;;;;6.20;4.10;;;30.20;40.00;;;;;;5076386;28;20028;-68
2023/06/09 12:20:46;;;;;;;9.23;4.63;;;30.30;40.20;;;;;;5087196;28;20023;-69
2023/06/09 12:23:14;;;;;;;4.93;4.00;;;30.30;39.80;;;;;;5078382;28;20063;-69
2023/06/09 12:25:48;;;;;;;4.50;3.92;;;30.30;39.90;;;;;;5074132;28;20081;-69
2023/06/09 12:28:23;;;;;;;6.55;4.35;;;30.30;40.20;;;;;;5098816;28;20028;-70
2023/06/09 12:30:50;;;;;;;8.10;4.07;;;30.50;40.20;;;;;;5081415;28;20013;-69
2023/06/09 12:33:18;;;;;;;7.70;4.20;;;30.50;39.90;;;;;;5095302;28;20017;-69
2023/06/09 12:35:46;;;;;;;4.15;3.75;;;30.70;39.90;;;;;;5089443;28;20390;-69
2023/06/09 12:38:16;;;;;;;4.35;3.95;;;31.00;39.80;;;;;;5098396;28;20626;-69
2023/06/09 12:40:50;;;;;;;5.70;4.10;;;31.00;39.50;;;;;;5081323;28;20237;-69
2023/06/09 12:43:18;;;;;;;4.63;3.75;;;31.00;38.60;;;;;;5088474;28;20028;-70
2023/06/09 12:45:44;;;;;;;3.40;3.10;;;30.90;38.50;;;;;;5084566;28;20025;-69
2023/06/09 12:48:10;;;;;;;7.75;3.88;;;31.20;39.50;;;;;;5082235;28;20082;-69